Time;durP1;ratioP1;P1;durP2;ratioP2;P2;SDS_P1;SDS_P2;PMS_P1;PMS_P2;Temp;Humidity;BMP_temperature;BMP_pressure;BME280_temperature;BME280_humidity;BME280_pressure;Samples;Min_cycle;Max_cycle;Signal;HPM_P1;HPM_P2
2023/11/11 00:02:23;;;;;;;10.23;2.67;;;5.40;99.90;;;;;;5067588;28;20071;-68
2023/11/11 00:04:50;;;;;;;5.70;2.70;;;5.40;99.90;;;;;;5069649;28;20457;-70
2023/11/11 00:07:17;;;;;;;6.35;2.80;;;5.40;99.90;;;;;;5068122;28;20037;-69
2023/11/11 00:09:44;;;;;;;9.40;2.72;;;5.40;99.90;;;;;;5057106;28;20076;-70
2023/11/11 00:12:11;;;;;;;8.27;2.28;;;5.30;99.90;;;;;;5067489;28;20044;-68
2023/11/11 00:14:38;;;;;;;7.28;2.90;;;5.30;99.90;;;;;;5067695;28;20543;-69
2023/11/11 00:17:07;;;;;;;8.88;2.65;;;5.30;99.90;;;;;;5067481;28;20075;-68
2023/11/11 00:19:34;;;;;;;6.38;3.63;;;5.40;99.90;;;;;;5068043;28;20052;-69
2023/11/11 00:22:01;;;;;;;8.13;2.50;;;5.30;99.90;;;;;;5067375;28;20064;-69
2023/11/11 00:24:29;;;;;;;4.55;2.40;;;5.30;99.90;;;;;;5067777;28;20105;-69
2023/11/11 00:26:56;;;;;;;5.18;1.90;;;5.30;99.90;;;;;;5069723;28;20044;-70
2023/11/11 00:29:23;;;;;;;8.65;2.88;;;5.30;99.90;;;;;;5069452;28;20056;-69
2023/11/11 00:31:50;;;;;;;9.27;2.20;;;5.30;99.90;;;;;;5068617;28;20127;-70
2023/11/11 00:34:17;;;;;;;7.20;2.33;;;5.30;99.90;;;;;;5066612;28;20511;-69
2023/11/11 00:36:45;;;;;;;4.70;2.42;;;5.20;99.90;;;;;;5069491;28;20036;-69
2023/11/11 00:39:12;;;;;;;7.57;2.65;;;5.20;99.90;;;;;;5068835;28;20462;-68
2023/11/11 00:41:39;;;;;;;4.43;2.10;;;5.20;99.90;;;;;;5069117;28;20045;-69
2023/11/11 00:44:09;;;;;;;8.30;1.95;;;5.20;99.90;;;;;;5068858;28;20088;-70
2023/11/11 00:46:39;;;;;;;5.00;2.35;;;5.20;99.90;;;;;;5051752;28;20106;-69
2023/11/11 00:49:07;;;;;;;6.85;2.10;;;5.10;99.90;;;;;;5068570;28;20040;-69
2023/11/11 00:51:36;;;;;;;6.75;2.92;;;5.10;99.90;;;;;;5069358;28;20044;-68
2023/11/11 00:54:03;;;;;;;6.53;2.00;;;5.10;99.90;;;;;;5068459;28;20048;-68
2023/11/11 00:56:30;;;;;;;5.55;1.80;;;5.10;99.90;;;;;;5069522;28;20044;-70
2023/11/11 00:58:57;;;;;;;7.07;2.63;;;5.20;99.90;;;;;;5051394;28;20106;-68
2023/11/11 01:01:24;;;;;;;8.23;2.22;;;5.10;99.90;;;;;;5069210;28;20118;-69
2023/11/11 01:03:51;;;;;;;8.05;2.25;;;5.20;99.90;;;;;;5067810;28;20051;-69
2023/11/11 01:06:18;;;;;;;5.68;1.90;;;5.10;99.90;;;;;;5068704;28;20041;-69
2023/11/11 01:08:45;;;;;;;5.93;2.30;;;5.10;99.90;;;;;;5068780;28;20049;-69
2023/11/11 01:11:12;;;;;;;7.55;2.20;;;5.10;99.90;;;;;;5067472;28;20071;-69
2023/11/11 01:13:38;;;;;;;7.15;2.92;;;5.20;99.90;;;;;;5068350;28;20048;-69
2023/11/11 01:16:05;;;;;;;5.68;2.38;;;5.10;99.90;;;;;;5068130;28;20048;-68
2023/11/11 01:18:33;;;;;;;6.40;2.78;;;5.20;99.90;;;;;;5068775;28;20053;-69
2023/11/11 01:21:03;;;;;;;8.68;2.22;;;5.20;99.90;;;;;;5068328;28;20060;-69
2023/11/11 01:23:33;;;;;;;6.10;2.47;;;5.20;99.90;;;;;;5053947;28;20047;-69
2023/11/11 01:26:01;;;;;;;5.65;2.17;;;5.10;99.90;;;;;;5063136;28;20471;-69
2023/11/11 01:28:31;;;;;;;8.00;2.50;;;5.20;99.90;;;;;;5068648;28;20048;-68
2023/11/11 01:30:58;;;;;;;7.40;1.92;;;5.10;99.90;;;;;;5069081;28;20076;-69
2023/11/11 01:33:25;;;;;;;9.68;2.92;;;5.10;99.90;;;;;;5068772;28;20048;-68
2023/11/11 01:35:52;;;;;;;7.00;2.40;;;5.10;99.90;;;;;;5051471;28;20056;-69
2023/11/11 01:38:19;;;;;;;4.65;2.05;;;5.10;99.90;;;;;;5069336;28;20058;-69
2023/11/11 01:40:46;;;;;;;7.53;3.38;;;5.20;99.90;;;;;;5068728;28;20082;-69
2023/11/11 01:43:14;;;;;;;10.05;3.42;;;5.20;99.90;;;;;;5068029;28;20097;-69
2023/11/11 01:45:44;;;;;;;5.18;2.15;;;5.10;99.90;;;;;;4815659;28;10001336;-69
2023/11/11 01:48:12;;;;;;;5.50;2.15;;;5.20;99.90;;;;;;5038444;28;20248;-69
2023/11/11 01:50:42;;;;;;;7.97;2.55;;;5.20;99.90;;;;;;5050299;28;20090;-69
2023/11/11 01:53:10;;;;;;;5.57;2.63;;;5.20;99.90;;;;;;5034223;28;20052;-69
2023/11/11 01:55:37;;;;;;;7.45;2.53;;;5.20;99.90;;;;;;5067385;28;20514;-69
2023/11/11 01:58:04;;;;;;;8.25;2.42;;;5.10;99.90;;;;;;5050272;28;20102;-69
2023/11/11 02:00:38;;;;;;;5.13;2.83;;;5.10;99.90;;;;;;5050145;28;20458;-69
2023/11/11 02:03:06;;;;;;;7.55;2.28;;;5.00;99.90;;;;;;5068171;28;20040;-69
2023/11/11 02:05:34;;;;;;;8.43;2.00;;;5.00;99.90;;;;;;5067825;28;20111;-69
2023/11/11 02:08:06;;;;;;;13.55;5.32;;;5.00;99.90;;;;;;5067674;28;20463;-68
2023/11/11 02:10:38;;;;;;;5.50;2.20;;;5.00;99.90;;;;;;5049980;28;20110;-70
2023/11/11 02:13:08;;;;;;;5.10;1.83;;;5.00;99.90;;;;;;5067127;28;20087;-69
2023/11/11 02:15:35;;;;;;;6.05;2.53;;;5.10;99.90;;;;;;5067605;28;20040;-70
2023/11/11 02:18:05;;;;;;;6.03;2.53;;;5.10;99.90;;;;;;5049848;28;20040;-70
2023/11/11 02:20:35;;;;;;;6.03;1.95;;;5.10;99.90;;;;;;5067835;28;20138;-70
2023/11/11 02:23:02;;;;;;;7.05;2.78;;;5.00;99.90;;;;;;5067178;28;20044;-69
2023/11/11 02:25:29;;;;;;;5.07;2.40;;;5.20;99.90;;;;;;5067499;28;20066;-69
2023/11/11 02:27:56;;;;;;;3.60;2.15;;;5.00;99.90;;;;;;5067894;28;20048;-70
2023/11/11 02:30:23;;;;;;;6.10;2.15;;;5.00;99.90;;;;;;5068011;28;20052;-70
2023/11/11 02:32:50;;;;;;;7.20;2.50;;;5.00;99.90;;;;;;5067528;28;20044;-69
2023/11/11 02:35:17;;;;;;;2.97;1.98;;;5.00;99.90;;;;;;5067946;28;20045;-69
2023/11/11 02:37:44;;;;;;;4.93;2.33;;;4.90;99.90;;;;;;5067802;28;20102;-70
2023/11/11 02:40:12;;;;;;;10.95;2.05;;;4.90;99.90;;;;;;5068058;28;20381;-69
2023/11/11 02:42:40;;;;;;;4.25;1.95;;;4.90;99.90;;;;;;5064339;28;20393;-70
2023/11/11 02:45:08;;;;;;;4.38;1.95;;;4.90;99.90;;;;;;5067221;28;20462;-69
2023/11/11 02:47:34;;;;;;;12.27;3.20;;;4.90;99.90;;;;;;5067050;28;20053;-69
2023/11/11 02:50:02;;;;;;;6.65;2.42;;;4.90;99.90;;;;;;5067591;28;20139;-70
2023/11/11 02:52:30;;;;;;;10.73;2.25;;;4.90;99.90;;;;;;5067426;28;20045;-70
2023/11/11 02:54:57;;;;;;;10.65;2.17;;;4.90;99.90;;;;;;5066941;28;20049;-69
2023/11/11 02:57:24;;;;;;;7.45;2.33;;;4.90;99.90;;;;;;5067155;28;20446;-70
2023/11/11 02:59:51;;;;;;;10.38;2.78;;;4.90;99.90;;;;;;5067319;28;20295;-69
2023/11/11 03:02:19;;;;;;;4.28;2.17;;;4.90;99.90;;;;;;5065697;28;20090;-68
2023/11/11 03:04:45;;;;;;;5.90;3.35;;;5.00;99.90;;;;;;5066846;28;20084;-69
2023/11/11 03:07:12;;;;;;;5.63;2.20;;;4.90;99.90;;;;;;5067224;28;20111;-69
2023/11/11 03:09:40;;;;;;;4.45;2.25;;;4.90;99.90;;;;;;5067521;28;20450;-68
2023/11/11 03:12:09;;;;;;;9.10;1.95;;;4.80;99.90;;;;;;5052700;28;20037;-69
2023/11/11 03:14:37;;;;;;;9.05;2.38;;;4.90;99.90;;;;;;5066712;28;20419;-69
2023/11/11 03:17:04;;;;;;;6.57;3.17;;;4.90;99.90;;;;;;5067144;28;20052;-69
2023/11/11 03:19:31;;;;;;;4.07;2.28;;;4.90;99.90;;;;;;5067376;28;20068;-69
2023/11/11 03:21:58;;;;;;;7.20;2.78;;;4.90;99.90;;;;;;5067590;28;20090;-69
2023/11/11 03:24:25;;;;;;;8.60;2.30;;;4.90;99.90;;;;;;5065579;28;20099;-69
2023/11/11 03:26:51;;;;;;;6.20;2.15;;;5.00;99.90;;;;;;5067591;28;20486;-69
2023/11/11 03:29:18;;;;;;;10.45;3.45;;;4.90;99.90;;;;;;5066853;28;20479;-69
2023/11/11 03:31:45;;;;;;;8.23;2.30;;;4.90;99.90;;;;;;5067304;28;20056;-69
2023/11/11 03:34:12;;;;;;;11.90;2.40;;;4.80;99.90;;;;;;5066403;28;20128;-70
2023/11/11 03:36:38;;;;;;;5.03;2.30;;;4.80;99.90;;;;;;5069773;28;20044;-69
2023/11/11 03:39:05;;;;;;;4.63;2.83;;;4.80;99.90;;;;;;5070717;28;20045;-69
2023/11/11 03:41:32;;;;;;;6.55;2.42;;;4.80;99.90;;;;;;5071081;28;20056;-69
2023/11/11 03:43:59;;;;;;;9.05;2.35;;;4.80;99.90;;;;;;5068620;28;20048;-69
2023/11/11 03:46:26;;;;;;;7.05;2.05;;;4.80;99.90;;;;;;5070550;28;20047;-69
2023/11/11 03:48:55;;;;;;;4.65;2.10;;;4.80;99.90;;;;;;5070347;28;20518;-69
2023/11/11 03:51:21;;;;;;;5.20;1.92;;;4.70;99.90;;;;;;5053155;28;20492;-69
2023/11/11 03:53:48;;;;;;;5.95;2.47;;;4.70;99.90;;;;;;5070406;28;20044;-69
2023/11/11 03:56:18;;;;;;;8.02;2.85;;;4.80;99.90;;;;;;5070059;28;20044;-69
2023/11/11 03:58:45;;;;;;;12.35;3.17;;;4.80;99.90;;;;;;5070316;28;20075;-69
2023/11/11 04:01:12;;;;;;;5.78;2.10;;;4.80;99.90;;;;;;5070245;28;20048;-70
2023/11/11 04:03:39;;;;;;;3.58;2.03;;;4.80;99.90;;;;;;5069949;28;20124;-70
2023/11/11 04:06:09;;;;;;;4.97;2.28;;;4.70;99.90;;;;;;5067526;28;20102;-70
2023/11/11 04:08:36;;;;;;;5.40;2.50;;;4.70;99.90;;;;;;5070303;28;20041;-69
2023/11/11 04:11:07;;;;;;;9.23;2.65;;;4.80;99.90;;;;;;5070592;28;20518;-69
2023/11/11 04:13:34;;;;;;;11.30;2.38;;;4.70;99.90;;;;;;5069940;28;20630;-69
2023/11/11 04:16:01;;;;;;;7.05;2.35;;;4.80;99.90;;;;;;5068622;28;20079;-69
2023/11/11 04:18:30;;;;;;;9.40;2.45;;;4.70;99.90;;;;;;5052266;28;20485;-69
2023/11/11 04:20:58;;;;;;;3.25;1.90;;;4.80;99.90;;;;;;5069848;28;20041;-69
2023/11/11 04:23:26;;;;;;;6.13;2.42;;;4.70;99.90;;;;;;5052467;28;20056;-69
2023/11/11 04:25:53;;;;;;;5.63;2.20;;;4.70;99.90;;;;;;5051772;28;20407;-69
2023/11/11 04:28:20;;;;;;;2.58;1.65;;;4.60;99.90;;;;;;5058997;28;20059;-69
2023/11/11 04:30:46;;;;;;;4.93;1.75;;;4.60;99.90;;;;;;5069774;28;20052;-72
2023/11/11 04:33:13;;;;;;;9.32;3.20;;;4.60;99.90;;;;;;5069683;28;20048;-68
2023/11/11 04:35:41;;;;;;;7.95;2.10;;;4.60;99.90;;;;;;5069023;28;20079;-68
2023/11/11 04:38:08;;;;;;;8.57;2.40;;;4.60;99.90;;;;;;5069691;28;20040;-68
2023/11/11 04:40:36;;;;;;;5.43;2.25;;;4.60;99.90;;;;;;5069285;28;20514;-69
2023/11/11 04:43:03;;;;;;;3.88;2.17;;;4.60;99.90;;;;;;5051540;28;20044;-68
2023/11/11 04:45:30;;;;;;;3.05;1.77;;;4.60;99.90;;;;;;5069264;28;20044;-68
2023/11/11 04:47:57;;;;;;;6.55;2.13;;;4.60;99.90;;;;;;5051065;28;20054;-68
2023/11/11 04:50:27;;;;;;;4.45;2.20;;;4.50;99.90;;;;;;5055022;28;20049;-68
2023/11/11 04:52:54;;;;;;;4.60;1.92;;;4.50;99.90;;;;;;5061072;28;20045;-68
2023/11/11 04:55:20;;;;;;;7.05;3.55;;;4.50;99.90;;;;;;5069262;28;20396;-68
2023/11/11 04:57:47;;;;;;;12.23;2.22;;;4.80;99.90;;;;;;5069253;28;20095;-68
2023/11/11 05:00:15;;;;;;;7.72;2.00;;;4.60;99.90;;;;;;5069694;28;20044;-68
2023/11/11 05:02:43;;;;;;;3.85;1.70;;;4.50;99.90;;;;;;5067387;28;20048;-69
2023/11/11 05:05:10;;;;;;;5.13;1.63;;;4.50;99.90;;;;;;5050613;28;20047;-68
2023/11/11 05:07:39;;;;;;;3.28;2.00;;;4.50;99.90;;;;;;5068567;28;20074;-68
2023/11/11 05:10:17;;;;;;;2.95;1.90;;;4.60;99.90;;;;;;5069453;28;20055;-68
2023/11/11 05:12:47;;;;;;;4.63;2.08;;;4.60;99.90;;;;;;5067549;28;20072;-68
2023/11/11 05:15:14;;;;;;;9.48;5.28;;;4.60;99.90;;;;;;5069279;28;20408;-68
2023/11/11 05:17:45;;;;;;;5.72;2.10;;;4.50;99.90;;;;;;5068853;28;20048;-68
2023/11/11 05:20:13;;;;;;;5.80;1.88;;;4.50;99.90;;;;;;5069655;28;20052;-68
2023/11/11 05:22:41;;;;;;;8.35;2.50;;;4.50;99.90;;;;;;5069343;28;20048;-68
2023/11/11 05:25:09;;;;;;;5.85;2.22;;;4.50;99.90;;;;;;5069113;28;20400;-68
2023/11/11 05:27:36;;;;;;;5.07;2.17;;;4.50;99.90;;;;;;5050771;28;20048;-68
2023/11/11 05:30:04;;;;;;;8.50;2.05;;;4.50;99.90;;;;;;5068763;28;20123;-68
2023/11/11 05:32:31;;;;;;;3.97;1.95;;;4.50;99.90;;;;;;5067806;28;20202;-68
2023/11/11 05:34:58;;;;;;;4.43;1.80;;;4.50;99.90;;;;;;5067452;28;20486;-69
2023/11/11 05:37:25;;;;;;;4.72;2.13;;;4.50;99.90;;;;;;5068392;28;20048;-69
2023/11/11 05:39:52;;;;;;;4.07;2.05;;;4.50;99.90;;;;;;5068464;28;20041;-68
2023/11/11 05:42:19;;;;;;;5.03;1.73;;;4.60;99.90;;;;;;5068285;28;20057;-68
2023/11/11 05:44:46;;;;;;;5.68;1.90;;;4.50;99.90;;;;;;5068100;28;20510;-69
2023/11/11 05:47:13;;;;;;;5.53;2.30;;;4.50;99.90;;;;;;5067919;28;20052;-68
2023/11/11 05:49:44;;;;;;;8.90;3.60;;;4.60;99.90;;;;;;5067962;28;20044;-69
2023/11/11 05:52:11;;;;;;;2.70;1.40;;;4.60;99.90;;;;;;5068443;28;20094;-69
2023/11/11 05:54:38;;;;;;;4.68;2.35;;;5.00;99.90;;;;;;5067794;28;20044;-69
2023/11/11 05:57:05;;;;;;;6.40;2.83;;;4.70;99.90;;;;;;5068066;28;20153;-69
2023/11/11 05:59:32;;;;;;;4.57;2.10;;;4.70;99.90;;;;;;5067010;28;20056;-68
2023/11/11 06:02:03;;;;;;;6.22;1.85;;;4.70;99.90;;;;;;5068088;28;20044;-69
2023/11/11 06:04:32;;;;;;;3.78;1.85;;;4.70;99.90;;;;;;5067653;28;20044;-68
2023/11/11 06:07:01;;;;;;;3.95;1.92;;;4.70;99.90;;;;;;5068082;28;20098;-69
2023/11/11 06:09:27;;;;;;;3.53;1.70;;;4.70;99.90;;;;;;5068193;28;20044;-69
2023/11/11 06:11:55;;;;;;;5.53;1.73;;;4.70;99.90;;;;;;5068118;28;20048;-68
2023/11/11 06:14:22;;;;;;;4.60;2.10;;;4.70;99.90;;;;;;5067978;28;20052;-69
2023/11/11 06:16:49;;;;;;;5.25;1.95;;;4.70;99.90;;;;;;5067867;28;20078;-69
2023/11/11 06:19:17;;;;;;;4.70;2.10;;;4.60;99.90;;;;;;5067255;28;20070;-69
2023/11/11 06:21:44;;;;;;;2.78;1.60;;;4.60;99.90;;;;;;5068055;28;20076;-69
2023/11/11 06:24:12;;;;;;;5.53;1.95;;;4.60;99.90;;;;;;5067658;28;20122;-69
2023/11/11 06:26:39;;;;;;;5.05;2.20;;;4.50;99.90;;;;;;5067648;28;20048;-68
2023/11/11 06:29:09;;;;;;;3.28;1.33;;;4.60;99.90;;;;;;5067860;28;20086;-69
2023/11/11 06:31:36;;;;;;;7.40;2.15;;;4.60;99.90;;;;;;5050075;28;20055;-68
2023/11/11 06:34:04;;;;;;;2.90;1.83;;;4.70;99.90;;;;;;5067574;28;20063;-68
2023/11/11 06:36:31;;;;;;;6.78;2.15;;;4.50;99.90;;;;;;5067772;28;20069;-69
2023/11/11 06:38:58;;;;;;;10.25;2.38;;;4.50;99.90;;;;;;5067380;28;20047;-69
2023/11/11 06:41:25;;;;;;;4.88;1.88;;;4.50;99.90;;;;;;5067351;28;20483;-69
2023/11/11 06:43:52;;;;;;;7.72;2.25;;;4.50;99.90;;;;;;5067535;28;20044;-68
2023/11/11 06:46:19;;;;;;;6.22;1.80;;;4.60;99.90;;;;;;5049790;28;20067;-68
2023/11/11 06:48:46;;;;;;;6.50;2.85;;;4.50;99.90;;;;;;5067374;28;20080;-68
2023/11/11 06:51:13;;;;;;;8.40;2.00;;;4.50;99.90;;;;;;5067381;28;20132;-68
2023/11/11 06:53:40;;;;;;;5.25;2.15;;;4.50;99.90;;;;;;5064564;28;20127;-68
2023/11/11 06:56:07;;;;;;;6.05;2.25;;;4.50;99.90;;;;;;5066894;28;20095;-68
2023/11/11 06:58:33;;;;;;;4.32;1.80;;;4.50;99.90;;;;;;5067397;28;20040;-68
2023/11/11 07:01:01;;;;;;;5.00;1.92;;;4.50;99.90;;;;;;5067720;28;20072;-68
2023/11/11 07:03:28;;;;;;;5.32;1.58;;;4.50;99.90;;;;;;5067159;28;20298;-68
2023/11/11 07:05:56;;;;;;;4.57;1.83;;;4.50;99.90;;;;;;5067138;28;20079;-71
2023/11/11 07:08:24;;;;;;;5.03;2.30;;;4.50;99.90;;;;;;5067415;28;20051;-68
2023/11/11 07:10:51;;;;;;;6.35;2.25;;;4.50;99.90;;;;;;5070264;28;20051;-68
2023/11/11 07:13:20;;;;;;;8.40;1.95;;;4.50;99.90;;;;;;5069717;28;20098;-68
2023/11/11 07:15:47;;;;;;;7.95;1.60;;;4.50;99.90;;;;;;5070051;28;20119;-69
2023/11/11 07:18:14;;;;;;;3.85;2.15;;;4.50;99.90;;;;;;5070227;28;20055;-68
2023/11/11 07:20:41;;;;;;;13.38;2.30;;;4.50;99.90;;;;;;5070153;28;20494;-72
2023/11/11 07:23:08;;;;;;;8.07;2.17;;;4.50;99.90;;;;;;5068545;28;20044;-68
2023/11/11 07:25:35;;;;;;;4.68;2.33;;;4.70;99.90;;;;;;5071020;28;20560;-68
2023/11/11 07:28:04;;;;;;;5.60;2.95;;;4.50;99.90;;;;;;5070740;28;20052;-69
2023/11/11 07:30:31;;;;;;;9.60;2.92;;;4.50;99.90;;;;;;5070825;28;20094;-69
2023/11/11 07:32:58;;;;;;;4.40;2.33;;;4.60;99.90;;;;;;5052396;28;20044;-68
2023/11/11 07:35:28;;;;;;;4.45;2.13;;;4.60;99.90;;;;;;5070697;28;20430;-68
2023/11/11 07:37:56;;;;;;;6.22;1.67;;;4.60;99.90;;;;;;5070404;28;20048;-68
2023/11/11 07:40:25;;;;;;;3.97;1.80;;;4.60;99.90;;;;;;5070695;28;20121;-68
2023/11/11 07:42:53;;;;;;;5.22;2.15;;;4.60;99.90;;;;;;5069686;28;20388;-68
2023/11/11 07:45:23;;;;;;;7.15;2.38;;;4.60;99.90;;;;;;5070038;28;20052;-68
2023/11/11 07:47:51;;;;;;;13.30;4.25;;;4.60;99.90;;;;;;5069877;28;20083;-69
2023/11/11 07:50:20;;;;;;;5.20;1.90;;;4.60;99.90;;;;;;5066816;28;20572;-70
2023/11/11 07:52:47;;;;;;;3.53;2.05;;;4.70;99.90;;;;;;5068778;28;20083;-69
2023/11/11 07:55:15;;;;;;;6.93;3.08;;;4.70;99.90;;;;;;5052693;28;20067;-70
2023/11/11 07:57:42;;;;;;;5.28;2.40;;;4.70;99.90;;;;;;5052272;28;20286;-68
2023/11/11 08:00:16;;;;;;;11.25;3.05;;;4.70;99.90;;;;;;5070173;28;20060;-69
2023/11/11 08:02:44;;;;;;;5.40;1.92;;;4.80;99.90;;;;;;5070020;28;20048;-68
2023/11/11 08:05:11;;;;;;;4.18;2.05;;;4.80;99.90;;;;;;5070414;28;20040;-68
2023/11/11 08:07:38;;;;;;;5.28;2.45;;;4.80;99.90;;;;;;5070300;28;20052;-68
2023/11/11 08:10:06;;;;;;;5.15;1.80;;;4.90;99.90;;;;;;5067643;28;20047;-69
2023/11/11 08:12:34;;;;;;;8.82;2.60;;;4.90;99.90;;;;;;5070748;28;20052;-68
2023/11/11 08:15:03;;;;;;;6.88;2.17;;;4.90;99.90;;;;;;5069924;28;20102;-69
2023/11/11 08:17:33;;;;;;;3.88;2.25;;;5.00;99.90;;;;;;5069600;28;20087;-69
2023/11/11 08:20:02;;;;;;;5.70;1.80;;;5.00;99.90;;;;;;5069306;28;20127;-69
2023/11/11 08:22:28;;;;;;;4.18;2.22;;;5.10;99.90;;;;;;5065417;28;20063;-68
2023/11/11 08:24:57;;;;;;;33.95;3.78;;;5.10;99.90;;;;;;5065766;28;20041;-68
2023/11/11 08:27:24;;;;;;;5.68;3.03;;;5.10;99.90;;;;;;5068021;28;20468;-69
2023/11/11 08:29:51;;;;;;;4.25;2.25;;;5.20;99.90;;;;;;5069190;28;20044;-68
2023/11/11 08:32:18;;;;;;;10.07;2.75;;;5.10;99.90;;;;;;5069288;28;20056;-68
2023/11/11 08:34:44;;;;;;;5.00;2.15;;;5.20;99.90;;;;;;5069200;28;20122;-68
2023/11/11 08:37:11;;;;;;;7.00;2.72;;;5.30;99.90;;;;;;5070700;28;20518;-68
2023/11/11 08:39:38;;;;;;;9.63;3.15;;;5.30;99.90;;;;;;5069972;28;20060;-67
2023/11/11 08:42:06;;;;;;;5.55;2.45;;;5.30;99.90;;;;;;5070846;28;20072;-69
2023/11/11 08:44:32;;;;;;;5.43;2.40;;;5.40;99.90;;;;;;5070370;28;20071;-69
2023/11/11 08:47:00;;;;;;;6.47;2.78;;;5.40;99.90;;;;;;5069591;28;20040;-69
2023/11/11 08:49:27;;;;;;;4.22;2.28;;;5.60;99.90;;;;;;5068429;28;20052;-68
2023/11/11 08:51:54;;;;;;;12.23;2.45;;;5.70;99.90;;;;;;5068624;28;20048;-68
2023/11/11 08:54:21;;;;;;;8.23;2.55;;;5.70;99.90;;;;;;4699614;28;10000225;-69
2023/11/11 08:56:49;;;;;;;9.55;2.75;;;5.70;99.90;;;;;;5064273;28;20105;-71
2023/11/11 08:59:16;;;;;;;8.68;3.72;;;5.70;99.90;;;;;;5063302;28;20105;-71
2023/11/11 09:01:43;;;;;;;6.40;2.90;;;5.70;99.90;;;;;;5064303;28;20515;-68
2023/11/11 09:04:10;;;;;;;7.28;2.08;;;5.80;99.90;;;;;;5064010;28;20051;-70
2023/11/11 09:06:40;;;;;;;5.85;2.70;;;5.90;99.90;;;;;;5047123;28;20080;-71
2023/11/11 09:09:14;;;;;;;6.07;2.65;;;5.90;99.90;;;;;;5063356;28;20050;-71
2023/11/11 09:11:46;;;;;;;4.40;2.20;;;6.00;99.90;;;;;;5064319;28;20189;-70
2023/11/11 09:14:13;;;;;;;6.32;2.25;;;6.00;99.90;;;;;;5064019;28;20141;-70
2023/11/11 09:16:40;;;;;;;5.35;2.60;;;6.00;99.90;;;;;;5046609;28;20044;-70
2023/11/11 09:19:10;;;;;;;6.20;2.42;;;6.10;99.90;;;;;;5064609;28;20056;-68
2023/11/11 09:21:38;;;;;;;5.25;3.03;;;6.10;99.90;;;;;;5063889;28;20055;-69
2023/11/11 09:24:07;;;;;;;5.82;2.78;;;6.10;99.90;;;;;;5061926;28;20570;-69
2023/11/11 09:26:35;;;;;;;5.43;3.33;;;6.20;99.90;;;;;;5065177;28;20266;-69
2023/11/11 09:29:01;;;;;;;3.85;1.80;;;6.20;99.90;;;;;;5064801;28;20526;-68
2023/11/11 09:31:28;;;;;;;2.58;1.50;;;6.30;99.90;;;;;;5064035;28;20060;-69
2023/11/11 09:34:01;;;;;;;7.38;2.28;;;6.40;99.90;;;;;;5061144;28;20059;-68
2023/11/11 09:36:28;;;;;;;8.27;2.60;;;6.40;99.90;;;;;;5062110;28;20051;-68
2023/11/11 09:38:55;;;;;;;4.95;1.95;;;6.50;99.90;;;;;;5060853;28;20052;-68
2023/11/11 09:41:22;;;;;;;3.63;2.30;;;6.60;99.90;;;;;;5044094;28;20041;-68
2023/11/11 09:43:50;;;;;;;5.80;2.95;;;6.60;99.90;;;;;;5045125;28;20110;-72
2023/11/11 09:46:21;;;;;;;8.00;2.00;;;6.70;99.90;;;;;;5045607;28;20048;-71
2023/11/11 09:48:48;;;;;;;8.20;2.28;;;6.70;99.90;;;;;;5063396;28;20044;-70
2023/11/11 09:51:21;;;;;;;7.50;2.40;;;6.80;99.90;;;;;;5045832;28;20153;-72
2023/11/11 09:53:49;;;;;;;7.13;2.10;;;6.90;99.90;;;;;;5038043;28;20055;-71
2023/11/11 09:56:16;;;;;;;8.43;2.22;;;6.90;99.90;;;;;;5038282;28;20050;-71
2023/11/11 09:58:46;;;;;;;6.85;2.28;;;7.00;99.90;;;;;;5035266;28;20090;-72
2023/11/11 10:01:21;;;;;;;7.32;1.95;;;7.00;99.90;;;;;;5006930;28;20069;-72
2023/11/11 10:03:57;;;;;;;2.85;1.55;;;7.10;99.90;;;;;;5022996;28;20145;-74
2023/11/11 10:06:24;;;;;;;8.50;2.72;;;7.20;99.90;;;;;;5023064;28;20073;-71
2023/11/11 10:08:51;;;;;;;7.55;2.25;;;7.20;99.90;;;;;;5022808;28;20452;-73
2023/11/11 10:11:19;;;;;;;9.93;3.90;;;7.20;99.90;;;;;;5023480;28;20393;-75
2023/11/11 10:13:47;;;;;;;7.43;1.90;;;7.30;99.90;;;;;;5015916;28;20069;-71
2023/11/11 10:16:16;;;;;;;5.47;2.00;;;7.30;99.90;;;;;;5021441;28;20061;-72
2023/11/11 10:18:46;;;;;;;3.00;1.75;;;7.30;99.90;;;;;;5021758;28;20052;-73
2023/11/11 10:21:16;;;;;;;9.60;2.55;;;7.40;99.90;;;;;;5026271;28;20069;-72
2023/11/11 10:23:50;;;;;;;8.65;2.72;;;7.40;99.90;;;;;;5027578;28;20045;-71
2023/11/11 10:26:20;;;;;;;5.70;2.47;;;7.50;99.90;;;;;;5027623;28;20408;-70
2023/11/11 10:28:50;;;;;;;3.60;1.73;;;7.50;99.90;;;;;;5026718;28;20053;-71
2023/11/11 10:31:18;;;;;;;10.00;2.03;;;7.50;99.90;;;;;;5027739;28;20054;-71
2023/11/11 10:33:50;;;;;;;9.80;3.75;;;7.60;99.90;;;;;;5017047;28;20132;-70
2023/11/11 10:36:19;;;;;;;8.13;2.42;;;7.70;99.90;;;;;;5023417;28;20046;-72
2023/11/11 10:38:46;;;;;;;5.70;1.73;;;7.70;99.90;;;;;;5036660;28;20062;-71
2023/11/11 10:41:14;;;;;;;11.10;2.25;;;7.80;99.90;;;;;;5016728;28;20156;-72
2023/11/11 10:43:46;;;;;;;14.52;2.92;;;7.80;99.90;;;;;;4997645;28;20049;-73
2023/11/11 10:46:19;;;;;;;8.27;2.00;;;7.80;99.90;;;;;;5011982;28;20088;-72
2023/11/11 10:48:46;;;;;;;5.25;2.33;;;7.80;99.90;;;;;;5024315;28;20408;-74
2023/11/11 10:51:13;;;;;;;6.93;2.35;;;7.90;99.90;;;;;;5026633;28;20402;-70
2023/11/11 10:53:40;;;;;;;7.65;2.20;;;7.90;99.90;;;;;;5009225;28;20053;-71
2023/11/11 10:56:08;;;;;;;4.10;1.67;;;7.90;99.90;;;;;;5025106;28;20046;-72
2023/11/11 10:58:46;;;;;;;6.70;2.00;;;8.00;99.90;;;;;;5022138;28;20053;-72
2023/11/11 11:01:14;;;;;;;9.75;2.42;;;8.10;99.90;;;;;;5028014;28;20579;-71
2023/11/11 11:03:41;;;;;;;11.00;2.53;;;8.20;99.90;;;;;;5023486;28;20061;-71
2023/11/11 11:06:14;;;;;;;13.10;2.13;;;8.20;99.90;;;;;;5024451;28;20458;-71
2023/11/11 11:09:03;;;;;;;6.75;2.88;;;8.20;99.90;;;;;;5019027;28;20472;-72
2023/11/11 11:11:37;;;;;;;3.65;1.83;;;8.40;99.90;;;;;;5024952;28;20064;-71
2023/11/11 11:14:08;;;;;;;;;;;8.40;99.90;;;;;;5005008;28;20133;-71
2023/11/11 11:16:38;;;;;;;12.82;2.28;;;8.50;99.90;;;;;;5019821;28;19925;-70
2023/11/11 11:19:07;;;;;;;5.00;1.58;;;8.60;99.90;;;;;;5022134;28;20045;-71
2023/11/11 11:21:37;;;;;;;10.77;1.98;;;8.60;99.90;;;;;;5022491;28;20471;-72
2023/11/11 11:24:14;;;;;;;8.65;1.90;;;8.60;99.90;;;;;;5023147;28;20045;-72
2023/11/11 11:26:42;;;;;;;8.38;1.85;;;8.70;99.90;;;;;;5026143;28;20242;-70
2023/11/11 11:29:21;;;;;;;6.00;1.98;;;8.70;99.90;;;;;;5026440;28;20053;-70
2023/11/11 11:32:10;;;;;;;3.67;1.33;;;8.70;99.90;;;;;;5026052;28;20068;-69
2023/11/11 11:34:39;;;;;;;3.05;1.92;;;8.80;99.90;;;;;;5024487;28;20045;-71
2023/11/11 11:37:12;;;;;;;7.18;2.08;;;8.80;99.90;;;;;;5024673;28;20051;-72
2023/11/11 11:40:01;;;;;;;4.43;1.35;;;8.80;99.90;;;;;;5026509;28;20135;-72
2023/11/11 11:42:30;;;;;;;5.07;1.65;;;8.90;99.90;;;;;;5025541;28;20085;-71
2023/11/11 11:44:58;;;;;;;9.95;1.98;;;9.00;99.90;;;;;;5023736;28;20042;-70
2023/11/11 11:47:33;;;;;;;4.80;1.85;;;9.00;99.90;;;;;;5026475;28;20053;-69
2023/11/11 11:50:00;;;;;;;3.00;1.48;;;9.00;99.90;;;;;;5021482;28;20155;-71
2023/11/11 11:52:27;;;;;;;8.30;2.05;;;9.10;99.90;;;;;;5031099;28;20500;-70
2023/11/11 11:54:58;;;;;;;7.75;1.83;;;9.10;99.90;;;;;;5020869;28;20350;-72
2023/11/11 11:57:25;;;;;;;6.45;2.10;;;9.10;99.90;;;;;;5017642;28;20176;-72
2023/11/11 12:00:13;;;;;;;4.35;1.48;;;9.10;99.90;;;;;;5058717;28;20048;-70
2023/11/11 12:02:40;;;;;;;8.27;1.40;;;9.20;99.90;;;;;;5065809;28;20117;-71
2023/11/11 12:05:08;;;;;;;3.50;1.33;;;9.30;99.90;;;;;;5063045;28;20041;-71
2023/11/11 12:07:37;;;;;;;10.52;1.50;;;9.30;99.90;;;;;;5065750;28;20401;-71
2023/11/11 12:10:11;;;;;;;9.20;1.63;;;9.30;99.90;;;;;;5047811;28;20113;-70
2023/11/11 12:12:43;;;;;;;4.63;1.88;;;9.30;99.90;;;;;;5064653;28;20507;-71
2023/11/11 12:15:15;;;;;;;7.53;1.48;;;9.40;99.90;;;;;;5047118;28;20048;-71
2023/11/11 12:17:43;;;;;;;10.93;1.67;;;9.40;99.90;;;;;;5060743;28;20539;-70
2023/11/11 12:20:14;;;;;;;5.72;1.33;;;9.40;99.90;;;;;;5065060;28;20060;-71
2023/11/11 12:22:42;;;;;;;2.20;0.95;;;9.40;99.90;;;;;;5065619;28;20553;-70
2023/11/11 12:25:10;;;;;;;5.30;2.10;;;9.50;99.90;;;;;;5064626;28;20048;-70
2023/11/11 12:27:37;;;;;;;5.45;2.22;;;9.50;99.90;;;;;;5066009;28;20049;-70
2023/11/11 12:30:20;;;;;;;6.38;2.00;;;9.50;99.90;;;;;;5066236;28;20072;-69
2023/11/11 12:33:06;;;;;;;5.95;1.17;;;9.60;99.90;;;;;;5061715;28;20059;-70
2023/11/11 12:35:34;;;;;;;9.40;1.63;;;9.70;99.90;;;;;;5066195;28;20060;-71
2023/11/11 12:38:30;;;;;;;3.85;1.25;;;9.70;99.90;;;;;;5065757;28;20307;-69
2023/11/11 12:41:00;;;;;;;7.00;1.77;;;9.70;99.90;;;;;;5052629;28;20507;-71
2023/11/11 12:43:28;;;;;;;6.72;1.80;;;9.70;99.90;;;;;;5031573;28;20048;-71
2023/11/11 12:45:55;;;;;;;4.28;1.63;;;9.70;99.90;;;;;;5065047;28;20058;-70
2023/11/11 12:48:30;;;;;;;5.47;1.45;;;9.80;99.90;;;;;;5062177;28;20049;-71
2023/11/11 12:51:00;;;;;;;2.47;1.33;;;9.80;99.90;;;;;;5064286;28;20385;-69
2023/11/11 12:53:27;;;;;;;3.38;1.20;;;9.90;99.90;;;;;;5042894;28;20076;-70
2023/11/11 12:56:04;;;;;;;2.90;1.17;;;9.90;99.90;;;;;;5062354;28;20134;-70
2023/11/11 12:58:31;;;;;;;7.18;1.48;;;9.90;99.90;;;;;;5064653;28;20068;-70
2023/11/11 13:01:04;;;;;;;7.32;1.20;;;9.90;99.90;;;;;;5065190;28;20522;-70
2023/11/11 13:03:31;;;;;;;3.13;1.38;;;10.00;99.90;;;;;;5064209;28;20083;-70